Latest Weather Observations for Gannett Cay

IDQ60801

Issued at 8:35 am EST Friday 25 July 2014 (issued every 30 minutes, with the page automatically refreshed every 10 minutes)

About weather observations | Map of weather stations | Latest weather observations for QLD | Other Formats
Station Details ID: 200831 Name: GANNET CAY Lat: -21.98 Lon: 152.47 Height: 2.3 m
Data from the previous 72 hours. | See also: Recent months for locations in Queensland
Date/Time
EST
Temp
°C
App
Temp
°C
Dew
Point
Rel
Hum
%
Delta-T
°C
Wind Press
QNH
hPa
Press
MSL
hPa
Rain
since 9 am
mm
Dir
 
Spd
km/h
Gust
km/h
Spd
kts
Gust
kts
25/08:30am 22.3 - - - - E 28 30 15 16 1023.7 - -
25/08:26am 22.2 - - - - E 28 30 15 16 1023.7 1023.8 -
25/08:00am 22.2 - - - - E 26 28 14 15 1023.3 - -
25/07:30am 22.1 - - - - E 28 30 15 16 1022.9 - -
25/07:26am 22.0 - - - - E 26 - 14 - - 1023.0 -
25/07:00am 21.9 - - - - E 26 28 14 15 1022.6 - -
25/06:30am 21.6 - - - - E 24 28 13 15 1022.3 - -
25/06:26am 21.5 - - - - E 24 - 13 - - 1022.3 -
25/06:00am 21.6 - - - - E 24 26 13 14 1022.0 - -
25/05:30am 21.5 - - - - E 22 26 12 14 1021.7 - -
25/05:26am 21.5 - - - - E 22 - 12 - - 1021.8 -
25/05:00am 21.5 - - - - E 22 26 12 14 1021.5 - -
25/04:30am 21.5 - - - - E 24 26 13 14 1021.2 - -
25/04:26am 21.5 - - - - E 24 - 13 - - 1021.2 -
25/04:00am 21.5 - - - - E 24 28 13 15 1021.0 - -
25/03:30am 21.6 - - - - E 24 28 13 15 1021.1 - -
25/03:26am 21.6 - - - - E 24 - 13 - - 1021.3 -
25/03:00am 21.6 - - - - E 24 28 13 15 1021.1 - -
25/02:30am 21.6 - - - - E 24 28 13 15 1021.1 - -
25/02:26am 21.7 - - - - E 24 - 13 - - 1021.3 -
25/02:00am 21.6 - - - - E 26 30 14 16 1021.2 - -
25/01:30am 21.7 - - - - E 26 30 14 16 1021.3 - -
25/01:26am 21.7 - - - - E 26 - 14 - - 1021.4 -
25/01:00am 21.7 - - - - E 26 32 14 17 1021.4 - -
25/12:26am 21.6 - - - - E 26 - 14 - - 1021.5 -
25/12:00am 21.7 - - - - E 26 30 14 16 1021.5 - -
 
Date/Time
EST
Temp
°C
App
Temp
°C
Dew
Point
Rel
Hum
%
Delta-T
°C
Wind Press
QNH
hPa
Press
MSL
hPa
Rain
since 9 am
mm
Dir
 
Spd
km/h
Gust
km/h
Spd
kts
Gust
kts
24/11:30pm 21.7 - - - - E 26 32 14 17 1021.6 - -
24/11:26pm 21.7 - - - - E 26 - 14 - - 1021.7 -
24/11:00pm 21.7 - - - - E 26 30 14 16 1021.5 - -
24/10:30pm 21.7 - - - - E 28 32 15 17 1021.7 - -
24/10:26pm 21.7 - - - - E 28 - 15 - - 1021.8 -
24/10:00pm 21.7 - - - - E 26 30 14 16 1021.8 - -
24/09:30pm 21.8 - - - - E 26 30 14 16 1021.7 - -
24/09:26pm 21.8 - - - - E 26 - 14 - - 1021.7 -
24/09:00pm 21.8 - - - - E 28 32 15 17 1021.5 - -
24/08:30pm 21.9 - - - - E 28 32 15 17 1021.3 - -
24/08:26pm 21.9 - - - - E 28 - 15 - - 1021.4 -
24/08:00pm 21.9 - - - - E 26 30 14 16 1021.1 - -
24/07:30pm 21.8 - - - - E 26 30 14 16 1021.0 - -
24/07:26pm 21.7 - - - - E 26 - 14 - - 1021.1 -
24/07:00pm 21.5 - - - - E 26 30 14 16 1020.7 - -
24/06:30pm 21.8 - - - - E 22 26 12 14 1020.4 - -
24/06:26pm 21.8 - - - - E 22 - 12 - - 1020.4 -
24/06:00pm 21.7 - - - - E 20 24 11 13 1020.0 - -
24/05:30pm 21.7 - - - - E 20 22 11 12 1019.6 - -
24/05:26pm 21.7 - - - - E 19 - 10 - - 1019.6 -
24/05:00pm 21.9 - - - - E 20 24 11 13 1019.2 - -
24/04:30pm 21.9 - - - - E 22 24 12 13 1018.9 - -
24/04:26pm 21.9 - - - - E 20 - 11 - - 1019.0 -
24/04:00pm 22.2 - - - - E 20 22 11 12 1018.8 - -
24/03:30pm 22.1 - - - - E 20 24 11 13 1018.6 - -
24/03:26pm 21.9 - - - - E 20 - 11 - - 1018.6 -
24/03:00pm 22.1 - - - - E 22 24 12 13 1018.6 - -
24/02:30pm 22.1 - - - - E 20 26 11 14 1018.4 - -
24/02:26pm 21.8 - - - - E 20 - 11 - - 1018.5 -
24/02:00pm 21.9 - - - - ENE 22 24 12 13 1018.3 - -
24/01:30pm 21.8 - - - - E 22 26 12 14 1018.4 - -
24/01:26pm 21.9 - - - - E 22 - 12 - - 1018.5 -
24/01:00pm 21.9 - - - - E 24 30 13 16 1018.4 - -
24/12:30pm 21.7 - - - - ENE 26 30 14 16 1018.5 - -
24/12:26pm 21.7 - - - - ENE 26 - 14 - - 1018.6 -
24/12:00pm 21.8 - - - - ENE 26 30 14 16 1019.0 - -
24/11:30am 21.7 - - - - E 24 32 13 17 1019.4 - -
24/11:26am 21.9 - - - - E 24 - 13 - - 1019.5 -
24/11:00am 21.8 - - - - E 26 30 14 16 1019.9 - -
24/10:30am 21.7 - - - - E 26 30 14 16 1020.3 - -
24/10:26am 21.8 - - - - E 22 - 12 - - 1020.4 -
24/10:00am 21.5 - - - - E 22 28 12 15 1020.4 - -
24/09:30am 21.0 - - - - ESE 32 37 17 20 1020.5 - -
24/09:26am 20.8 - - - - ESE 32 - 17 - - 1020.6 -
24/09:00am 21.1 - - - - ESE 26 32 14 17 1020.4 - -
24/08:30am 21.5 - - - - ESE 24 28 13 15 1020.4 - -
24/08:26am 21.6 - - - - ESE 24 - 13 - - 1020.4 -
24/08:00am 21.3 - - - - ESE 28 30 15 16 1020.1 - -
24/07:30am 20.8 - - - - ESE 32 35 17 19 1019.8 - -
24/07:26am 20.8 - - - - ESE 32 - 17 - - 1019.8 -
24/07:00am 21.2 - - - - ESE 24 30 13 16 1019.4 - -
24/06:30am 21.1 - - - - E 26 28 14 15 1019.0 - -
24/06:26am 21.1 - - - - E 24 - 13 - - 1019.1 -
24/06:00am 21.2 - - - - E 24 28 13 15 1018.7 - -
24/05:30am 21.1 - - - - E 24 30 13 16 1018.5 - -
24/05:26am 21.2 - - - - E 24 - 13 - - 1018.5 -
24/05:00am 21.1 - - - - E 26 30 14 16 1018.2 - -
24/04:30am 21.0 - - - - E 26 32 14 17 1018.1 - -
24/04:26am 21.0 - - - - E 28 - 15 - - 1018.2 -
24/04:00am 21.1 - - - - E 28 33 15 18 1018.0 - -
24/03:30am 21.1 - - - - E 28 32 15 17 1018.1 - -
24/03:26am 21.1 - - - - E 28 - 15 - - 1018.2 -
24/02:30am 21.1 - - - - E 32 33 17 18 1018.3 - -
24/02:26am 21.2 - - - - E 30 - 16 - - 1018.4 -
24/02:00am 21.2 - - - - E 30 35 16 19 1018.2 - -
24/01:30am 21.3 - - - - E 30 35 16 19 1018.3 - -
24/01:26am 21.3 - - - - E 28 - 15 - - 1018.4 -
24/01:00am 21.2 - - - - E 28 33 15 18 1018.6 - -
24/12:30am 20.9 - - - - ESE 28 39 15 21 1018.6 - -
24/12:26am 21.0 - - - - ESE 28 - 15 - - 1018.7 -
24/12:00am 21.2 - - - - E 32 35 17 19 1018.5 - -
 
Date/Time
EST
Temp
°C
App
Temp
°C
Dew
Point
Rel
Hum
%
Delta-T
°C
Wind Press
QNH
hPa
Press
MSL
hPa
Rain
since 9 am
mm
Dir
 
Spd
km/h
Gust
km/h
Spd
kts
Gust
kts
23/11:30pm 20.9 - - - - ESE 33 37 18 20 1018.6 - -
23/11:26pm 20.9 - - - - ESE 33 - 18 - - 1018.7 -
23/11:00pm 20.8 - - - - ESE 35 43 19 23 1018.8 - -
23/10:30pm 20.8 - - - - ESE 35 39 19 21 1018.9 - -
23/10:26pm 20.8 - - - - ESE 33 - 18 - - 1019.0 -
23/10:00pm 21.3 - - - - E 30 35 16 19 1019.0 - -
23/09:30pm 21.3 - - - - ESE 32 39 17 21 1019.1 - -
23/09:26pm 21.3 - - - - ESE 32 - 17 - - 1019.2 -
23/09:00pm 21.3 - - - - E 32 35 17 19 1018.9 - -
23/08:30pm 21.4 - - - - ESE 33 39 18 21 1018.8 - -
23/08:26pm 21.4 - - - - ESE 33 - 18 - - 1018.8 -
23/08:00pm 21.3 - - - - ESE 33 39 18 21 1018.6 - -
23/07:30pm 21.4 - - - - ESE 33 39 18 21 1018.5 - -
23/07:26pm 21.3 - - - - ESE 33 - 18 - - 1018.6 -
23/07:00pm 21.4 - - - - ESE 35 41 19 22 1018.3 - -
23/06:30pm 21.5 - - - - ESE 35 41 19 22 1017.8 - -
23/06:26pm 21.4 - - - - ESE 37 - 20 - - 1017.9 -
23/06:00pm 21.4 - - - - ESE 35 41 19 22 1017.6 - -
23/05:30pm 21.4 - - - - ESE 30 33 16 18 1017.6 - -
23/05:26pm 21.5 - - - - ESE 30 - 16 - - 1017.8 -
23/05:00pm 21.5 - - - - ESE 30 33 16 18 1017.5 - -
23/04:30pm 21.7 - - - - SE 30 35 16 19 1017.5 - -
23/04:26pm 21.6 - - - - SE 30 - 16 - - 1017.5 -
23/04:00pm 21.8 - - - - SE 30 35 16 19 1017.2 - -
23/03:30pm 21.7 - - - - ESE 30 35 16 19 1017.0 - -
23/03:26pm 22.0 - - - - ESE 30 - 16 - - 1017.1 -
23/03:00pm 21.8 - - - - ESE 28 35 15 19 1016.7 - -
23/02:30pm 21.4 - - - - ESE 30 35 16 19 1016.6 - -
23/02:26pm 21.9 - - - - ESE 30 - 16 - - 1016.7 -
23/02:00pm 21.5 - - - - ESE 30 35 16 19 1017.1 - -
23/01:30pm 21.5 - - - - SE 32 35 17 19 1017.3 - -
23/01:26pm 21.4 - - - - SE 33 - 18 - - 1017.4 -
23/01:00pm 22.0 - - - - ESE 26 30 14 16 1017.1 - -
23/12:30pm 21.8 - - - - ESE 28 32 15 17 1017.1 - -
23/12:26pm 21.7 - - - - ESE 30 - 16 - - 1017.2 -
23/12:00pm 21.4 - - - - ESE 30 35 16 19 1017.4 - -
23/11:30am 19.5 - - - - SSE 32 41 17 22 1018.4 - -
23/11:26am 19.5 - - - - SSE 35 - 19 - - 1018.6 -
23/11:20am 19.4 - - - - SSE 41 46 22 25 1018.6 - -
23/11:00am 21.4 - - - - ESE 28 32 15 17 1018.9 - -
23/10:30am 21.7 - - - - ESE 26 30 14 16 1019.3 - -
23/10:26am 21.6 - - - - ESE 26 - 14 - - 1019.4 -
23/10:00am 20.8 - - - - E 19 28 10 15 1019.6 - -
23/09:30am 20.5 - - - - E 26 35 14 19 1019.6 - -
23/09:26am 19.7 - - - - ENE 28 - 15 - - 1019.7 -
23/09:00am 20.7 - - - - E 33 35 18 19 1019.4 - -
23/08:30am 20.9 - - - - E 24 30 13 16 1019.1 - -
23/08:26am 21.1 - - - - E 24 - 13 - - 1019.1 -
23/08:00am 21.0 - - - - E 30 33 16 18 1018.9 - -
23/07:30am 21.0 - - - - E 28 32 15 17 1018.6 - -
23/07:26am 20.9 - - - - E 28 - 15 - - 1018.6 -
23/07:00am 20.4 - - - - E 33 37 18 20 1018.1 - -
23/06:30am 20.9 - - - - ESE 30 35 16 19 1017.9 - -
23/06:26am 20.8 - - - - ESE 32 - 17 - - 1017.9 -
23/06:00am 20.8 - - - - ESE 32 37 17 20 1017.6 - -
23/05:30am 20.9 - - - - E 30 35 16 19 1017.3 - -
23/05:26am 20.9 - - - - E 30 - 16 - - 1017.3 -
23/05:00am 20.6 - - - - ESE 32 37 17 20 1017.0 - -
23/04:30am 21.0 - - - - ESE 32 35 17 19 1016.8 - -
23/04:26am 20.9 - - - - ESE 32 - 17 - - 1016.8 -
23/04:00am 20.7 - - - - E 32 39 17 21 1016.6 - -
23/03:30am 20.6 - - - - ESE 28 32 15 17 1016.6 - -
23/03:26am 20.7 - - - - ESE 30 - 16 - - 1016.8 -
23/02:30am 20.5 - - - - E 32 35 17 19 1016.9 - -
23/02:26am 20.5 - - - - E 32 - 17 - - 1017.0 -
23/02:00am 20.3 - - - - ESE 30 37 16 20 1017.1 - -
23/01:30am 20.6 - - - - ESE 28 35 15 19 1017.3 - -
23/01:26am 20.4 - - - - ESE 28 - 15 - - 1017.4 -
23/01:00am 20.4 - - - - ESE 30 35 16 19 1017.6 - -
23/12:30am 20.4 - - - - ESE 30 35 16 19 1017.7 - -
23/12:26am 20.5 - - - - ESE 28 - 15 - - 1017.8 -
23/12:00am 20.0 - - - - ESE 30 35 16 19 1017.8 - -
 
Date/Time
EST
Temp
°C
App
Temp
°C
Dew
Point
Rel
Hum
%
Delta-T
°C
Wind Press
QNH
hPa
Press
MSL
hPa
Rain
since 9 am
mm
Dir
 
Spd
km/h
Gust
km/h
Spd
kts
Gust
kts
22/11:30pm 20.7 - - - - ESE 30 35 16 19 1017.9 - -
22/11:26pm 20.5 - - - - ESE 32 - 17 - - 1018.0 -
22/11:00pm 20.5 - - - - ESE 24 28 13 15 1018.1 - -
22/10:30pm 20.4 - - - - ESE 28 32 15 17 1018.3 - -
22/10:26pm 20.2 - - - - ESE 30 - 16 - - 1018.5 -
22/10:00pm 20.6 - - - - SE 33 37 18 20 1018.5 - -
22/09:30pm 20.4 - - - - SE 30 35 16 19 1018.3 - -
22/09:26pm 20.6 - - - - SE 30 - 16 - - 1018.5 -
22/09:06pm 20.1 - - - - ESE 39 41 21 22 1018.4 - -
22/09:00pm 20.7 - - - - SSE 32 37 17 20 1018.3 - -
22/08:30pm 20.5 - - - - SE 28 33 15 18 1018.2 - -
22/08:26pm 20.5 - - - - SE 30 - 16 - - 1018.2 -
22/08:00pm 20.3 - - - - SSE 30 35 16 19 1018.1 - -
22/07:30pm 20.3 - - - - SE 30 35 16 19 1017.9 - -
22/07:26pm 20.5 - - - - SSE 30 - 16 - - 1017.9 -
22/07:00pm 20.3 - - - - SSE 32 35 17 19 1017.7 - -
22/06:30pm 20.6 - - - - SSE 30 33 16 18 1017.3 - -
22/06:26pm 20.6 - - - - SSE 28 - 15 - - 1017.4 -
22/06:00pm 20.4 - - - - SSE 30 35 16 19 1016.9 - -
22/05:30pm 20.6 - - - - S 30 33 16 18 1016.6 - -
22/05:26pm 20.7 - - - - S 30 - 16 - - 1016.7 -
22/05:00pm 21.1 - - - - SSE 28 33 15 18 1016.4 - -
22/04:30pm 21.0 - - - - S 28 30 15 16 1016.1 - -
22/04:26pm 20.8 - - - - S 28 - 15 - - 1016.2 -
22/04:00pm 20.9 - - - - S 28 30 15 16 1015.9 - -
22/03:30pm 21.0 - - - - S 28 32 15 17 1015.8 - -
22/03:26pm 21.0 - - - - S 28 - 15 - - 1015.9 -
22/03:00pm 21.1 - - - - S 26 28 14 15 1015.8 - -
22/02:30pm 21.1 - - - - S 26 28 14 15 1015.8 - -
22/02:26pm 21.0 - - - - S 26 - 14 - - 1015.9 -
22/02:00pm 20.8 - - - - S 28 32 15 17 1016.0 - -
22/01:30pm 21.0 - - - - SSW 28 32 15 17 1016.3 - -
22/01:26pm 20.8 - - - - SSW 28 - 15 - - 1016.5 -
22/01:00pm 20.7 - - - - S 28 33 15 18 1016.6 - -
22/12:30pm 20.8 - - - - S 28 32 15 17 1017.2 - -
22/12:26pm 21.0 - - - - S 28 - 15 - - 1017.3 -
22/12:00pm 20.8 - - - - SSW 30 33 16 18 1017.7 - -
22/11:30am 20.9 - - - - S 26 30 14 16 1018.2 - -
22/11:26am 20.9 - - - - S 26 - 14 - - 1018.4 -
22/11:00am 20.8 - - - - SSW 22 26 12 14 1018.7 - -
22/10:30am 21.0 - - - - S 20 24 11 13 1019.1 - -
22/10:26am 21.1 - - - - S 19 - 10 - - 1019.2 -
22/10:00am 21.0 - - - - SSW 19 20 10 11 1019.3 - -
22/09:30am 20.9 - - - - SSW 19 24 10 13 1019.5 - -
22/09:26am 20.8 - - - - SSW 19 - 10 - - 1019.6 -
22/09:00am 20.8 - - - - SSW 19 20 10 11 1019.7 - -

Other Formats:

Comma delimited format used in spreadsheet applications
http://www.bom.gov.au/fwo/IDQ60801/IDQ60801.94379.axf

JavaScript Object Notation format (JSON) in row-major order
http://www.bom.gov.au/fwo/IDQ60801/IDQ60801.94379.json